Trenton, NJ

05:26 PM EST em 05 de Março de 2015 (GMT -0500)
Morris Heights | Change Station
CLOSE
Current Station
Estação Meteorológica Particular
Location: Morrisville, PA
Altitude: 89 ft
Estações Meteorológicas Próximas

Elev 89 ft 40.22 °N, 74.78 °W | Updated 15 minutes ago

Neve
Neve
23.0 °F
Aparente 23 °F
N
0.0
Vento Variável Vento de NNO
Gusts 0.0 mph

Hoje
Máxima -- | Mínima -- °F
--% Possibilidade de Precip.
Ontem
Máxima -- | Mínima -- °F
Precip. -- pol
6:26 AM 5:54 PM
Lua cheia, 100% visible
Pressão 30.21 pol
Visibilidade 1.0 milhas
Nuvens
Sensação Térmica 23 °F
Ponto de Orvalho Não disponível
Humidade Não disponível
Chuva pol
Altura de Neve Não disponível
UV Não disponível
Pólen .60 em vez de 12
Qualidade do Ar Não disponível
Flu Activity Não disponível
SPECI KTTN 052222Z 34008KT 1SM -SN VV014 M07/M09 A3021 RMK AO2 P0000 T10671094

More Conditions Fewer Conditions

Pressão 30.21 pol
Visibilidade 1.0 milhas
Nuvens
Sensação Térmica 23 °F
Ponto de Orvalho Não disponível
Humidade Não disponível
Chuva pol
Altura de Neve Não disponível
UV Não disponível
Pólen .60 em vez de 12
Qualidade do Ar Não disponível
Flu Activity Não disponível
SPECI KTTN 052222Z 34008KT 1SM -SN VV014 M07/M09 A3021 RMK AO2 P0000 T10671094

More Conditions Fewer Conditions

10-Day Weather Forecast

Almanac

Astronomia

Mar. 05, 2015 Nascer Pôr
Hora atual
Crepúsculo civil
Crepúsculo náutico
Crepúsculo astronómico
Lua
Comprimento da luz visível
Duração do Dia
Tomorrow will be .
, % of the Moon is Illuminated

Extremos de Hoje

situação na parte mais alta situação na parte mais baixa

Community

WunderPhotos

Upload Photos

1,803,016 fotografias inseridas!

WunderBlogs® & News

Nearby

Qualidade do Ar

  Qualidade do Ar Índice da Q.A. Poluente
Not available.

Altura da Neve

Estação altura Altitude

Actividade Sísmisca

Cidade Distância Mag. Hora & Data
Mínima magnitude apresentada é 2.5.

Temperaturas das Águas Costeiras

Local Temperatura

Estações Meteorológicas Próximas

Winter Storm Warning
Statement as of 03:38 PM EST em 05 de Março de 2015

... Winter Storm Warning remains in effect until 7 PM EST this
evening...

* locations... portions of northeast Pennsylvania and northern
New Jersey.

* Hazard types... long duration snow.

* Snow accumulations... total snow accumulations of 4 to 8
inches.

* Timing... snow will continue into the evening, heavy at times.

* Temperatures... 15 to 21.

* Wind... north and gusting to 20 mph.

* Impacts... widespread and substantial impacts on travel are
expected.

* Visibilities... one quarter to one half mile at times.

Precautionary/preparedness actions...

A Winter Storm Warning means significant amounts of snow...
sleet... and ice are expected or occurring. Strong winds are also
possible. This will make travel very hazardous or impossible.